Time;durP1;ratioP1;P1;durP2;ratioP2;P2;SDS_P1;SDS_P2;PMS_P1;PMS_P2;Temp;Humidity;BMP_temperature;BMP_pressure;BME280_temperature;BME280_humidity;BME280_pressure;Samples;Min_cycle;Max_cycle;Signal;HPM_P1;HPM_P2
2023/01/03 00:04:29;;;;;;;3.30;1.43;;;;;;;;;;10365255;28;20568;-61
2023/01/03 00:09:29;;;;;;;1.40;1.30;;;;;;;;;;10366151;28;20209;-60
2023/01/03 00:14:31;;;;;;;2.13;1.40;;;;;;;;;;10365973;28;20196;-61
2023/01/03 00:19:35;;;;;;;2.50;1.60;;;;;;;;;;10365407;28;20248;-61
2023/01/03 00:24:35;;;;;;;1.50;1.40;;;;;;;;;;10365780;28;20271;-61
2023/01/03 00:29:36;;;;;;;2.03;1.70;;;;;;;;;;10365460;28;20209;-61
2023/01/03 00:34:36;;;;;;;1.40;1.30;;;;;;;;;;10364965;28;20198;-60
2023/01/03 00:39:36;;;;;;;1.80;1.60;;;;;;;;;;10369217;28;20727;-61
2023/01/03 00:44:36;;;;;;;3.00;1.60;;;;;;;;;;10372074;28;20221;-62
2023/01/03 00:49:36;;;;;;;2.93;1.33;;;;;;;;;;10372855;28;20696;-61
2023/01/03 00:54:37;;;;;;;1.70;1.40;;;;;;;;;;10372160;28;20564;-61
2023/01/03 00:59:37;;;;;;;1.50;1.40;;;;;;;;;;10371822;28;20279;-61
2023/01/03 01:04:37;;;;;;;1.73;1.63;;;;;;;;;;10371947;28;20225;-59
2023/01/03 01:09:37;;;;;;;1.80;1.40;;;;;;;;;;10371469;28;20217;-60
2023/01/03 01:14:37;;;;;;;2.23;2.03;;;;;;;;;;10370511;28;20284;-61
2023/01/03 01:19:39;;;;;;;2.03;1.87;;;;;;;;;;10370741;28;20248;-60
2023/01/03 01:24:39;;;;;;;2.53;2.33;;;;;;;;;;10370984;28;20308;-58
2023/01/03 01:29:40;;;;;;;4.07;2.80;;;;;;;;;;10370879;28;20328;-60
2023/01/03 01:34:40;;;;;;;3.70;2.70;;;;;;;;;;10370378;28;20251;-59
2023/01/03 01:39:40;;;;;;;2.97;2.77;;;;;;;;;;10370740;28;20210;-60
2023/01/03 01:44:43;;;;;;;3.60;3.20;;;;;;;;;;10369392;28;20216;-60
2023/01/03 01:49:44;;;;;;;2.83;2.57;;;;;;;;;;10370354;28;20244;-58
2023/01/03 01:54:46;;;;;;;5.40;2.93;;;;;;;;;;10369721;28;20911;-61
2023/01/03 01:59:47;;;;;;;3.07;2.30;;;;;;;;;;10368245;28;20206;-60
2023/01/03 02:04:48;;;;;;;3.53;2.07;;;;;;;;;;10368795;28;20695;-59
2023/01/03 02:09:51;;;;;;;2.90;2.30;;;;;;;;;;10369523;28;20212;-60
2023/01/03 02:14:51;;;;;;;5.03;2.00;;;;;;;;;;10367648;28;20288;-62
2023/01/03 02:20:06;;;;;;;2.27;2.03;;;;;;;;;;10436280;23;20605;-60
2023/01/03 02:25:25;;;;;;;2.60;1.80;;;;;;;;;;10413395;28;20248;-58
2023/01/03 02:30:28;;;;;;;4.50;2.20;;;;;;;;;;10408771;28;20209;-59
2023/01/03 02:35:32;;;;;;;2.07;1.87;;;;;;;;;;10408041;28;20617;-60
2023/01/03 02:40:32;;;;;;;2.10;1.90;;;;;;;;;;10408007;28;20222;-59
2023/01/03 02:45:35;;;;;;;3.60;1.90;;;;;;;;;;10407793;28;20231;-61
2023/01/03 02:50:41;;;;;;;3.97;2.43;;;;;;;;;;10408227;28;20255;-60
2023/01/03 02:55:42;;;;;;;2.20;2.00;;;;;;;;;;10407550;28;20243;-58
2023/01/03 03:00:47;;;;;;;2.13;2.03;;;;;;;;;;10407228;28;20216;-60
2023/01/03 03:05:53;;;;;;;2.37;2.07;;;;;;;;;;10432629;28;20208;-60
2023/01/03 03:16:46;;;;;;;3.47;1.90;;;;;;;;;;10447485;28;20215;-60
2023/01/03 03:28:33;;;;;;;1.80;1.70;;;;;;;;;;10447022;28;20709;-58
2023/01/03 03:32:23;;;;;;;2.23;1.93;;;;;;;;;;10448311;28;20283;-60
2023/01/03 03:37:26;;;;;;;2.47;2.10;;;;;;;;;;10447385;28;20695;-62
2023/01/03 03:47:57;;;;;;;4.83;2.20;;;;;;;;;;10447201;28;20204;-61
2023/01/03 03:52:59;;;;;;;3.50;1.90;;;;;;;;;;10447478;28;20509;-60
2023/01/03 03:58:05;;;;;;;1.83;1.73;;;;;;;;;;10446977;28;20579;-61
2023/01/03 04:03:06;;;;;;;1.73;1.57;;;;;;;;;;10434264;28;20212;-62
2023/01/03 04:08:06;;;;;;;1.80;1.70;;;;;;;;;;10400435;28;20698;-60
2023/01/03 04:13:06;;;;;;;3.07;2.50;;;;;;;;;;10398455;28;20192;-62
2023/01/03 04:18:07;;;;;;;3.30;1.63;;;;;;;;;;10408133;28;20243;-61
2023/01/03 04:23:07;;;;;;;3.03;2.03;;;;;;;;;;10407344;28;20216;-62
2023/01/03 04:28:07;;;;;;;2.80;1.70;;;;;;;;;;10407470;28;20343;-61
2023/01/03 04:33:07;;;;;;;2.33;2.13;;;;;;;;;;10407825;28;20197;-59
2023/01/03 04:38:07;;;;;;;2.20;1.70;;;;;;;;;;10405757;28;20455;-61
2023/01/03 04:48:26;;;;;;;3.03;1.53;;;;;;;;;;10406370;28;20451;-60
2023/01/03 04:53:27;;;;;;;1.60;1.27;;;;;;;;;;10406575;28;20192;-61
2023/01/03 04:58:27;;;;;;;1.90;1.80;;;;;;;;;;10406203;28;20212;-60
2023/01/03 05:03:28;;;;;;;2.90;1.83;;;;;;;;;;10409458;28;20217;-59
2023/01/03 05:08:28;;;;;;;4.10;1.80;;;;;;;;;;10411366;28;20212;-61
2023/01/03 05:13:28;;;;;;;2.00;1.53;;;;;;;;;;10411296;28;20872;-61
2023/01/03 05:18:29;;;;;;;2.47;1.70;;;;;;;;;;10411675;28;20247;-61
2023/01/03 05:28:50;;;;;;;4.70;1.60;;;;;;;;;;10412962;28;20574;-60
2023/01/03 05:33:50;;;;;;;2.50;2.00;;;;;;;;;;10411917;28;20554;-61
2023/01/03 05:38:51;;;;;;;2.00;1.80;;;;;;;;;;10411958;28;20224;-61
2023/01/03 05:43:51;;;;;;;4.43;2.23;;;;;;;;;;10411635;28;20224;-60
2023/01/03 05:48:51;;;;;;;3.93;1.90;;;;;;;;;;10411449;28;20201;-61
2023/01/03 05:53:51;;;;;;;2.20;2.00;;;;;;;;;;10411102;28;20572;-61
2023/01/03 05:58:52;;;;;;;2.40;2.20;;;;;;;;;;10411443;28;20316;-60
2023/01/03 06:03:52;;;;;;;3.53;2.50;;;;;;;;;;10410422;28;20216;-61
2023/01/03 06:08:53;;;;;;;3.77;2.77;;;;;;;;;;10410926;28;20208;-61
2023/01/03 06:13:53;;;;;;;5.13;2.83;;;;;;;;;;10410214;28;20200;-61
2023/01/03 06:18:54;;;;;;;2.90;2.70;;;;;;;;;;10428631;28;20602;-61
2023/01/03 06:23:54;;;;;;;2.80;2.60;;;;;;;;;;10420307;28;20263;-61
2023/01/03 06:28:55;;;;;;;2.57;2.30;;;;;;;;;;10410192;28;20231;-61
2023/01/03 06:33:55;;;;;;;3.17;2.77;;;;;;;;;;10409577;28;20184;-60
2023/01/03 06:38:56;;;;;;;4.73;3.10;;;;;;;;;;10408403;28;20236;-58
2023/01/03 06:43:56;;;;;;;3.90;3.50;;;;;;;;;;10409106;28;20235;-60
2023/01/03 06:54:26;;;;;;;4.57;3.33;;;;;;;;;;10408897;28;20561;-60
2023/01/03 06:59:27;;;;;;;6.70;3.80;;;;;;;;;;10408643;28;20306;-61
2023/01/03 07:04:27;;;;;;;3.90;3.50;;;;;;;;;;10407916;28;20213;-61
2023/01/03 07:09:27;;;;;;;4.10;3.27;;;;;;;;;;10408992;28;20273;-59
2023/01/03 07:14:27;;;;;;;5.40;3.93;;;;;;;;;;10408017;28;20184;-60
2023/01/03 07:19:27;;;;;;;6.87;3.87;;;;;;;;;;10407958;28;20236;-61
2023/01/03 07:24:27;;;;;;;6.13;3.07;;;;;;;;;;10418568;28;20224;-60
2023/01/03 07:29:28;;;;;;;5.53;3.60;;;;;;;;;;10415140;28;20266;-61
2023/01/03 07:34:29;;;;;;;4.93;3.50;;;;;;;;;;10407162;28;20671;-59
2023/01/03 07:39:29;;;;;;;4.23;3.20;;;;;;;;;;10407453;28;20212;-60
2023/01/03 07:44:29;;;;;;;4.50;3.40;;;;;;;;;;10407068;28;20224;-60
2023/01/03 07:49:30;;;;;;;3.87;3.47;;;;;;;;;;10406676;28;20524;-61
2023/01/03 07:54:30;;;;;;;5.00;3.53;;;;;;;;;;10407247;28;20200;-60
2023/01/03 07:59:30;;;;;;;5.93;4.10;;;;;;;;;;10400656;28;20607;-62
2023/01/03 08:04:30;;;;;;;6.28;3.55;;;;;;;;;;10444366;28;20735;-58
2023/01/03 08:14:49;;;;;;;4.37;3.20;;;;;;;;;;10436508;28;20199;-61
2023/01/03 08:19:49;;;;;;;5.93;3.83;;;;;;;;;;10458254;23;20641;-62
2023/01/03 08:24:50;;;;;;;4.83;3.77;;;;;;;;;;10413605;28;20228;-61
2023/01/03 08:29:50;;;;;;;7.33;4.03;;;;;;;;;;10429758;28;20208;-63
2023/01/03 08:34:50;;;;;;;3.40;3.10;;;;;;;;;;10414986;28;20191;-63
2023/01/03 08:39:55;;;;;;;4.17;2.50;;;;;;;;;;10408050;28;20212;-65
2023/01/03 08:44:58;;;;;;;3.10;2.80;;;;;;;;;;10436005;28;20243;-63
2023/01/03 08:49:58;;;;;;;5.13;3.10;;;;;;;;;;10438694;28;20626;-59
2023/01/03 08:54:58;;;;;;;4.90;3.20;;;;;;;;;;10427747;28;20671;-63
2023/01/03 08:59:58;;;;;;;5.87;3.60;;;;;;;;;;10417669;28;20212;-62
2023/01/03 09:04:59;;;;;;;5.43;3.07;;;;;;;;;;10449541;28;20219;-63
2023/01/03 09:09:59;;;;;;;6.13;2.97;;;;;;;;;;10451224;28;20287;-63
2023/01/03 09:14:59;;;;;;;4.83;2.90;;;;;;;;;;10448940;28;20241;-64
2023/01/03 09:20:00;;;;;;;3.63;2.90;;;;;;;;;;10450008;28;20718;-64
2023/01/03 09:25:00;;;;;;;4.13;2.93;;;;;;;;;;10449410;28;20220;-65
2023/01/03 09:30:00;;;;;;;6.07;3.10;;;;;;;;;;10449243;28;20199;-62
2023/01/03 09:35:00;;;;;;;4.90;3.00;;;;;;;;;;10429939;28;20192;-62
2023/01/03 09:40:01;;;;;;;4.40;3.67;;;;;;;;;;10416147;28;20216;-63
2023/01/03 09:45:02;;;;;;;4.20;2.70;;;;;;;;;;10444898;28;20765;-63
2023/01/03 09:50:02;;;;;;;5.23;3.23;;;;;;;;;;10444437;28;20219;-64
2023/01/03 10:06:03;;;;;;;4.00;2.70;;;;;;;;;;10443542;28;20625;-64
2023/01/03 10:11:06;;;;;;;3.40;2.30;;;;;;;;;;10443013;28;20211;-62
2023/01/03 10:16:25;;;;;;;2.37;2.17;;;;;;;;;;10443131;28;20681;-63
2023/01/03 10:21:33;;;;;;;3.23;2.00;;;;;;;;;;10442126;28;20366;-62
2023/01/03 10:26:33;;;;;;;2.53;2.30;;;;;;;;;;10440778;28;20219;-61
2023/01/03 10:31:57;;;;;;;2.30;2.00;;;;;;;;;;10443116;28;20211;-62
2023/01/03 10:36:57;;;;;;;5.67;2.40;;;;;;;;;;10431199;28;20655;-59
2023/01/03 10:41:58;;;;;;;5.47;1.97;;;;;;;;;;10441277;28;20204;-59
2023/01/03 10:47:06;;;;;;;4.20;2.27;;;;;;;;;;10441696;28;20219;-60
2023/01/03 10:52:17;;;;;;;3.33;1.93;;;;;;;;;;10442746;28;20677;-61
2023/01/03 10:57:56;;;;;;;7.17;2.20;;;;;;;;;;10404759;28;20192;-61
2023/01/03 11:03:11;;;;;;;3.17;2.10;;;;;;;;;;10272104;28;20211;-60
2023/01/03 11:08:21;;;;;;;4.80;1.90;;;;;;;;;;10402464;28;20659;-57
2023/01/03 11:13:38;;;;;;;1.80;1.60;;;;;;;;;;10422638;28;20231;-60
2023/01/03 11:18:40;;;;;;;3.87;1.60;;;;;;;;;;10398346;28;20251;-56
2023/01/03 11:23:43;;;;;;;4.30;1.40;;;;;;;;;;10399519;28;20224;-59
2023/01/03 11:28:56;;;;;;;3.17;1.73;;;;;;;;;;10422512;28;20218;-58
2023/01/03 11:34:03;;;;;;;1.87;1.40;;;;;;;;;;10421738;28;20481;-61
2023/01/03 11:39:21;;;;;;;2.47;1.80;;;;;;;;;;10434465;28;20299;-62
2023/01/03 11:44:27;;;;;;;2.50;1.60;;;;;;;;;;10435617;28;20261;-60
2023/01/03 11:49:27;;;;;;;6.00;1.63;;;;;;;;;;10440047;28;20287;-61
2023/01/03 11:54:44;;;;;;;4.47;1.50;;;;;;;;;;10434958;28;20180;-60
2023/01/03 12:00:04;;;;;;;1.77;1.13;;;;;;;;;;10425763;28;20214;-62
2023/01/03 12:05:30;;;;;;;1.60;1.27;;;;;;;;;;10423083;28;20219;-61
2023/01/03 12:10:37;;;;;;;1.33;1.20;;;;;;;;;;10412239;28;20207;-62
2023/01/03 12:15:46;;;;;;;1.20;1.10;;;;;;;;;;10440186;28;20195;-64
2023/01/03 12:20:57;;;;;;;2.50;1.40;;;;;;;;;;10438723;28;20259;-64
2023/01/03 12:25:59;;;;;;;2.20;1.10;;;;;;;;;;10435718;28;20219;-64
2023/01/03 12:31:09;;;;;;;2.27;1.17;;;;;;;;;;10443540;28;20314;-64
2023/01/03 12:36:26;;;;;;;1.70;1.07;;;;;;;;;;10446569;28;20204;-62
2023/01/03 12:41:30;;;;;;;2.13;1.00;;;;;;;;;;10451242;28;20212;-63
2023/01/03 12:46:34;;;;;;;0.80;0.80;;;;;;;;;;10451376;28;20228;-64
2023/01/03 12:51:34;;;;;;;2.67;1.00;;;;;;;;;;10450560;28;20196;-64
2023/01/03 12:56:42;;;;;;;2.20;1.13;;;;;;;;;;10444419;28;20199;-63
2023/01/03 13:01:52;;;;;;;0.80;0.80;;;;;;;;;;10449646;28;20219;-63
2023/01/03 13:07:12;;;;;;;0.80;0.80;;;;;;;;;;10449132;28;20227;-63
2023/01/03 13:12:14;;;;;;;6.80;0.93;;;;;;;;;;10448802;28;20230;-63
2023/01/03 13:17:16;;;;;;;1.70;0.90;;;;;;;;;;10449647;28;20690;-63
2023/01/03 13:22:21;;;;;;;1.60;1.20;;;;;;;;;;10450048;28;20329;-62
2023/01/03 13:27:33;;;;;;;3.10;1.30;;;;;;;;;;10449482;28;20291;-64
2023/01/03 13:32:46;;;;;;;4.70;1.50;;;;;;;;;;10448966;28;20283;-61
2023/01/03 13:37:47;;;;;;;4.63;1.70;;;;;;;;;;10448372;28;20192;-61
2023/01/03 13:42:48;;;;;;;3.90;1.40;;;;;;;;;;10449138;28;20199;-61
2023/01/03 13:47:49;;;;;;;1.33;1.00;;;;;;;;;;10448318;28;20540;-60
2023/01/03 13:53:01;;;;;;;1.53;1.40;;;;;;;;;;10448699;28;20214;-63
2023/01/03 13:58:02;;;;;;;4.30;3.90;;;;;;;;;;10448929;28;20713;-67
2023/01/03 14:03:11;;;;;;;8.00;4.87;;;;;;;;;;10448148;28;20224;-64
2023/01/03 14:08:18;;;;;;;1.10;1.10;;;;;;;;;;10448433;28;20246;-64
2023/01/03 14:13:24;;;;;;;3.00;1.70;;;;;;;;;;10446837;28;20233;-64
2023/01/03 14:18:27;;;;;;;3.20;1.67;;;;;;;;;;10467959;22;20231;-61
2023/01/03 14:23:27;;;;;;;5.23;2.40;;;;;;;;;;10362824;28;20241;-61
2023/01/03 14:28:30;;;;;;;1.70;1.60;;;;;;;;;;10364995;28;20207;-61
2023/01/03 14:33:35;;;;;;;4.17;2.07;;;;;;;;;;10364583;28;20212;-63
2023/01/03 14:38:35;;;;;;;2.00;1.80;;;;;;;;;;10363024;28;20213;-62
2023/01/03 14:43:35;;;;;;;5.43;3.00;;;;;;;;;;10363938;28;20645;-61
2023/01/03 14:48:36;;;;;;;11.57;5.33;;;;;;;;;;10361740;28;20209;-62
2023/01/03 14:53:37;;;;;;;11.50;6.10;;;;;;;;;;10363231;28;20186;-59
2023/01/03 14:58:38;;;;;;;5.50;3.03;;;;;;;;;;10363951;28;21216;-61
2023/01/03 15:03:41;;;;;;;3.30;1.37;;;;;;;;;;10360563;28;20261;-59
2023/01/03 15:08:42;;;;;;;3.70;2.00;;;;;;;;;;10363037;28;20566;-61
2023/01/03 15:13:45;;;;;;;5.20;1.80;;;;;;;;;;10361205;28;20185;-61
2023/01/03 15:18:47;;;;;;;3.07;1.70;;;;;;;;;;10360991;28;20380;-60
2023/01/03 15:23:48;;;;;;;3.97;1.70;;;;;;;;;;10361747;28;20564;-58
2023/01/03 15:28:53;;;;;;;3.50;2.00;;;;;;;;;;10359064;28;20213;-59
2023/01/03 15:34:02;;;;;;;2.87;1.90;;;;;;;;;;10361786;28;20193;-60
2023/01/03 15:39:06;;;;;;;1.30;1.20;;;;;;;;;;10362537;28;20220;-61
2023/01/03 15:44:07;;;;;;;2.47;1.87;;;;;;;;;;10361732;28;20232;-62
2023/01/03 15:49:09;;;;;;;6.20;2.03;;;;;;;;;;10354678;28;20213;-60
2023/01/03 15:54:11;;;;;;;44.60;24.60;;;;;;;;;;10345342;28;20289;-62
2023/01/03 15:59:12;;;;;;;60.40;37.67;;;;;;;;;;10354472;28;20239;-62
2023/01/03 16:04:12;;;;;;;20.07;12.80;;;;;;;;;;10361495;28;20716;-59
2023/01/03 16:09:12;;;;;;;18.87;11.17;;;;;;;;;;10362382;28;20311;-61
2023/01/03 16:14:17;;;;;;;32.20;14.87;;;;;;;;;;10369248;28;20296;-61
2023/01/03 16:19:19;;;;;;;27.13;12.33;;;;;;;;;;10368947;28;20240;-60
2023/01/03 16:24:19;;;;;;;7.37;4.20;;;;;;;;;;10367769;28;20253;-61
2023/01/03 16:29:20;;;;;;;5.70;3.90;;;;;;;;;;10367722;28;20630;-58
2023/01/03 16:34:21;;;;;;;7.90;5.63;;;;;;;;;;10367947;28;20196;-60
2023/01/03 16:39:23;;;;;;;4.83;3.50;;;;;;;;;;10369216;28;20296;-60
2023/01/03 16:44:24;;;;;;;7.63;4.90;;;;;;;;;;10367977;28;20893;-59
2023/01/03 16:49:24;;;;;;;10.67;6.43;;;;;;;;;;10368247;28;20200;-60
2023/01/03 16:54:24;;;;;;;11.23;6.83;;;;;;;;;;10378594;28;20652;-60
2023/01/03 16:59:25;;;;;;;11.27;6.53;;;;;;;;;;10383414;28;20205;-59
2023/01/03 17:04:25;;;;;;;13.47;7.40;;;;;;;;;;10378420;28;20216;-61
2023/01/03 17:09:28;;;;;;;14.30;6.53;;;;;;;;;;10364426;28;20710;-60
2023/01/03 17:14:30;;;;;;;12.67;6.30;;;;;;;;;;10371001;28;20186;-57
2023/01/03 17:19:33;;;;;;;10.23;5.53;;;;;;;;;;10369878;28;20741;-61
2023/01/03 17:24:33;;;;;;;5.60;4.20;;;;;;;;;;10371102;28;20233;-63
2023/01/03 17:29:33;;;;;;;10.80;6.77;;;;;;;;;;10370592;28;20228;-58
2023/01/03 17:34:33;;;;;;;10.93;6.07;;;;;;;;;;10369936;28;20192;-62
2023/01/03 17:39:33;;;;;;;12.77;8.00;;;;;;;;;;10368397;28;20205;-60
2023/01/03 17:44:34;;;;;;;15.30;9.23;;;;;;;;;;10367685;28;20809;-62
2023/01/03 17:49:34;;;;;;;10.83;6.57;;;;;;;;;;10368509;28;20193;-62
2023/01/03 17:54:38;;;;;;;12.03;5.97;;;;;;;;;;10367816;28;20196;-63
2023/01/03 17:59:38;;;;;;;6.13;4.97;;;;;;;;;;10367929;28;20221;-61
2023/01/03 18:04:38;;;;;;;6.37;3.80;;;;;;;;;;10367549;28;20588;-62
2023/01/03 18:09:39;;;;;;;8.30;4.47;;;;;;;;;;10367493;28;20248;-61
2023/01/03 18:14:40;;;;;;;13.43;7.63;;;;;;;;;;10367466;28;20562;-60
2023/01/03 18:19:40;;;;;;;5.07;3.43;;;;;;;;;;10367311;28;20236;-59
2023/01/03 18:24:40;;;;;;;11.73;5.40;;;;;;;;;;10366915;28;20326;-61
2023/01/03 18:29:41;;;;;;;17.90;8.43;;;;;;;;;;10366504;28;20844;-61
2023/01/03 18:34:41;;;;;;;9.77;4.93;;;;;;;;;;10365597;28;20224;-61
2023/01/03 18:39:42;;;;;;;17.83;7.93;;;;;;;;;;10376943;28;20314;-61
2023/01/03 18:44:42;;;;;;;17.37;8.63;;;;;;;;;;10406981;28;20269;-59
2023/01/03 18:49:42;;;;;;;14.10;6.77;;;;;;;;;;10407694;28;20203;-59
2023/01/03 18:54:42;;;;;;;6.13;4.63;;;;;;;;;;10408102;28;20193;-60
2023/01/03 18:59:44;;;;;;;8.17;4.53;;;;;;;;;;10407525;28;20277;-58
2023/01/03 19:04:45;;;;;;;20.83;9.20;;;;;;;;;;10407496;28;20274;-58
2023/01/03 19:09:45;;;;;;;26.93;15.23;;;;;;;;;;10406353;28;20253;-55
2023/01/03 19:14:45;;;;;;;11.67;8.17;;;;;;;;;;10407449;28;20188;-59
2023/01/03 19:19:45;;;;;;;6.93;4.73;;;;;;;;;;10406524;28;20663;-57
2023/01/03 19:24:46;;;;;;;9.27;6.23;;;;;;;;;;10406333;28;20880;-60
2023/01/03 19:29:46;;;;;;;8.30;3.50;;;;;;;;;;10406521;28;20211;-59
2023/01/03 19:34:46;;;;;;;7.17;3.77;;;;;;;;;;10406449;28;20987;-58
2023/01/03 19:39:47;;;;;;;5.80;4.10;;;;;;;;;;10405490;28;20223;-58
2023/01/03 19:44:47;;;;;;;6.80;3.83;;;;;;;;;;10405291;28;20918;-63
2023/01/03 19:49:47;;;;;;;6.40;3.10;;;;;;;;;;10405573;28;20266;-61
2023/01/03 19:54:48;;;;;;;12.63;7.00;;;;;;;;;;10405747;28;20197;-60
2023/01/03 19:59:50;;;;;;;3.90;2.97;;;;;;;;;;10405724;28;20212;-60
2023/01/03 20:04:50;;;;;;;6.13;3.43;;;;;;;;;;10383889;28;20213;-62
2023/01/03 20:09:50;;;;;;;3.80;3.27;;;;;;;;;;10364336;28;20263;-59
2023/01/03 20:14:52;;;;;;;6.60;3.13;;;;;;;;;;10365084;28;20201;-62
2023/01/03 20:19:52;;;;;;;4.60;2.67;;;;;;;;;;10363511;28;20239;-60
2023/01/03 20:24:52;;;;;;;4.37;2.30;;;;;;;;;;10384900;23;20252;-63
2023/01/03 20:29:53;;;;;;;4.25;2.75;;;;;;;;;;10364387;28;20200;-63
2023/01/03 20:34:53;;;;;;;3.67;2.07;;;;;;;;;;10363637;28;20344;-62
2023/01/03 20:39:53;;;;;;;4.60;2.30;;;;;;;;;;10364173;28;20743;-63
2023/01/03 20:44:55;;;;;;;5.20;2.50;;;;;;;;;;10363779;28;20761;-63
2023/01/03 20:49:55;;;;;;;5.30;2.63;;;;;;;;;;10363888;28;20190;-61
2023/01/03 20:54:55;;;;;;;2.93;2.60;;;;;;;;;;10364681;28;20221;-63
2023/01/03 20:59:55;;;;;;;3.53;2.70;;;;;;;;;;10371908;28;20296;-62
2023/01/03 21:04:55;;;;;;;5.27;2.87;;;;;;;;;;10370338;28;20260;-60
2023/01/03 21:09:56;;;;;;;6.37;2.87;;;;;;;;;;10371309;28;20213;-63
2023/01/03 21:14:56;;;;;;;3.63;2.93;;;;;;;;;;10369744;28;20231;-62
2023/01/03 21:19:56;;;;;;;5.73;2.70;;;;;;;;;;10370047;28;20193;-63
2023/01/03 21:24:56;;;;;;;4.53;2.80;;;;;;;;;;10370566;28;20244;-62
2023/01/03 21:29:56;;;;;;;4.53;2.47;;;;;;;;;;10371202;28;20193;-62
2023/01/03 21:34:56;;;;;;;5.37;2.93;;;;;;;;;;10370187;28;20305;-62
2023/01/03 21:39:57;;;;;;;4.07;2.60;;;;;;;;;;10370737;28;20208;-62
2023/01/03 21:44:57;;;;;;;3.37;2.23;;;;;;;;;;10367904;28;20224;-61
2023/01/03 21:49:57;;;;;;;4.77;2.43;;;;;;;;;;10369653;28;20197;-60
2023/01/03 21:54:57;;;;;;;4.90;2.70;;;;;;;;;;10370533;28;20216;-64
2023/01/03 21:59:57;;;;;;;4.40;2.63;;;;;;;;;;10370372;28;20289;-62
2023/01/03 22:04:57;;;;;;;3.80;2.53;;;;;;;;;;10368488;28;20239;-61
2023/01/03 22:10:17;;;;;;;4.40;2.33;;;;;;;;;;10370024;28;20256;-62
2023/01/03 22:15:17;;;;;;;7.30;2.80;;;;;;;;;;10369090;28;20256;-62
2023/01/03 22:20:19;;;;;;;5.33;2.50;;;;;;;;;;10369658;28;20271;-62
2023/01/03 22:25:20;;;;;;;4.37;2.23;;;;;;;;;;10368455;28;20299;-63
2023/01/03 22:30:20;;;;;;;2.40;2.20;;;;;;;;;;10369127;28;20249;-63
2023/01/03 22:35:20;;;;;;;2.27;1.70;;;;;;;;;;10368182;28;20209;-61
2023/01/03 22:40:21;;;;;;;2.60;1.90;;;;;;;;;;10368887;28;20199;-63
2023/01/03 22:45:21;;;;;;;2.30;1.50;;;;;;;;;;10367404;28;20220;-63
2023/01/03 22:50:21;;;;;;;5.03;1.80;;;;;;;;;;10368251;28;20208;-63
2023/01/03 22:55:21;;;;;;;2.33;1.80;;;;;;;;;;10368124;28;20209;-63
2023/01/03 23:00:22;;;;;;;3.73;1.83;;;;;;;;;;10367918;28;20197;-62
2023/01/03 23:05:22;;;;;;;5.20;1.87;;;;;;;;;;10367109;28;20318;-62
2023/01/03 23:10:22;;;;;;;3.90;1.80;;;;;;;;;;10367921;28;20194;-63
2023/01/03 23:15:23;;;;;;;3.70;1.70;;;;;;;;;;10366871;28;20585;-63
2023/01/03 23:20:28;;;;;;;4.20;1.60;;;;;;;;;;10366853;28;20731;-62
2023/01/03 23:25:29;;;;;;;3.80;1.93;;;;;;;;;;10366773;28;20262;-62
2023/01/03 23:30:30;;;;;;;1.73;1.37;;;;;;;;;;10366669;28;20188;-62
2023/01/03 23:35:31;;;;;;;2.80;1.67;;;;;;;;;;10366902;28;20698;-60
2023/01/03 23:40:31;;;;;;;6.20;2.00;;;;;;;;;;10366732;28;20250;-60
2023/01/03 23:45:31;;;;;;;2.00;1.40;;;;;;;;;;10365610;28;20212;-64
2023/01/03 23:50:31;;;;;;;4.37;1.60;;;;;;;;;;10366764;28;20185;-64
2023/01/03 23:55:32;;;;;;;2.50;1.57;;;;;;;;;;10366088;28;20689;-64
